createdAt,value
2019-03-24T00:02:19.410Z,55.78
2019-03-24T00:04:48.719Z,61.53
2019-03-24T00:07:17.865Z,62.62
2019-03-24T00:09:47.455Z,63.78
2019-03-24T00:12:16.810Z,59.73
2019-03-24T00:14:45.962Z,61.42
2019-03-24T00:17:15.062Z,60.28
2019-03-24T00:19:44.148Z,59.88
2019-03-24T00:22:13.256Z,61.88
2019-03-24T00:24:42.345Z,58.85
2019-03-24T00:27:11.446Z,59.95
2019-03-24T00:29:41.083Z,60.05
2019-03-24T00:32:10.146Z,56.20
2019-03-24T00:34:39.762Z,52.43
2019-03-24T00:37:09.087Z,63.25
2019-03-24T00:39:38.136Z,57.10
2019-03-24T00:42:07.270Z,62.27
2019-03-24T00:44:36.342Z,63.75
2019-03-24T00:47:05.675Z,62.83
2019-03-24T00:49:34.754Z,59.65
2019-03-24T00:52:03.855Z,60.65
2019-03-24T00:54:32.943Z,64.42
2019-03-24T00:57:02.054Z,65.78
2019-03-24T00:59:31.100Z,58.92
2019-03-24T01:02:00.222Z,58.90
2019-03-24T01:04:30.049Z,65.03
2019-03-24T01:06:59.134Z,68.60
2019-03-24T01:09:28.537Z,67.12
2019-03-24T01:11:57.629Z,64.75
2019-03-24T01:14:26.740Z,63.38
2019-03-24T01:16:55.826Z,63.50
2019-03-24T01:19:24.930Z,63.38
2019-03-24T01:21:54.514Z,71.15
2019-03-24T01:24:23.738Z,65.75
2019-03-24T01:26:52.831Z,67.72
2019-03-24T01:29:22.875Z,61.00
2019-03-24T01:31:51.938Z,75.70
2019-03-24T01:34:21.072Z,64.75
2019-03-24T01:36:50.126Z,68.70
2019-03-24T01:39:19.246Z,72.05
2019-03-24T01:41:48.323Z,62.17
2019-03-24T01:44:17.421Z,67.67
2019-03-24T01:46:46.799Z,66.37
2019-03-24T01:49:15.921Z,73.02
2019-03-24T01:51:45.015Z,67.40
2019-03-24T01:54:14.109Z,70.83
2019-03-24T01:56:43.239Z,71.97
2019-03-24T01:59:12.394Z,70.95
2019-03-24T02:01:41.502Z,69.00
2019-03-24T02:04:10.610Z,72.37
2019-03-24T02:06:39.950Z,71.28
2019-03-24T02:09:09.726Z,69.30
2019-03-24T02:11:38.808Z,66.20
2019-03-24T02:14:07.895Z,71.15
2019-03-24T02:16:36.998Z,75.15
2019-03-24T02:19:06.086Z,73.35
2019-03-24T02:21:35.191Z,72.10
2019-03-24T02:24:04.278Z,76.62
2019-03-24T02:26:33.859Z,68.72
2019-03-24T02:29:03.290Z,68.65
2019-03-24T02:31:32.476Z,75.97
2019-03-24T02:34:01.592Z,78.78
2019-03-24T02:36:30.691Z,70.47
2019-03-24T02:38:59.770Z,68.02
2019-03-24T02:41:28.835Z,68.12
2019-03-24T02:43:57.961Z,72.10
2019-03-24T02:46:27.321Z,73.37
2019-03-24T02:48:56.473Z,74.22
2019-03-24T02:51:25.808Z,73.78
2019-03-24T02:53:54.864Z,80.10
2019-03-24T02:56:23.971Z,66.92
2019-03-24T02:58:53.068Z,73.52
2019-03-24T03:01:22.452Z,75.90
2019-03-24T03:03:51.554Z,72.35
2019-03-24T03:06:20.700Z,57.95
2019-03-24T03:08:49.859Z,61.42
2019-03-24T03:11:19.024Z,56.10
2019-03-24T03:13:48.623Z,60.08
2019-03-24T03:16:17.759Z,55.78
2019-03-24T03:18:46.869Z,57.85
2019-03-24T03:21:15.951Z,60.45
2019-03-24T03:23:45.046Z,68.85
2019-03-24T03:26:14.215Z,75.60
2019-03-24T03:28:43.353Z,77.45
2019-03-24T03:31:12.509Z,69.82
2019-03-24T03:33:41.648Z,73.00
2019-03-24T03:36:10.962Z,61.28
2019-03-24T03:38:40.052Z,57.58
2019-03-24T03:41:09.116Z,51.15
2019-03-24T03:43:38.227Z,52.67
2019-03-24T03:46:07.560Z,64.30
2019-03-24T03:48:36.738Z,66.35
2019-03-24T03:51:05.815Z,57.27
2019-03-24T03:53:35.178Z,58.83
2019-03-24T03:56:04.618Z,55.50
2019-03-24T03:58:33.727Z,58.40
2019-03-24T04:01:02.797Z,55.08
2019-03-24T04:03:31.910Z,51.40
2019-03-24T04:06:01.017Z,64.85
2019-03-24T04:08:30.275Z,55.43
2019-03-24T04:10:59.398Z,58.42
2019-03-24T04:13:28.509Z,58.23
2019-03-24T04:15:57.816Z,62.30
2019-03-24T04:18:27.156Z,53.85
2019-03-24T04:20:56.541Z,54.48
2019-03-24T04:23:25.845Z,60.48
2019-03-24T04:25:55.015Z,69.00
2019-03-24T04:28:24.100Z,65.62
2019-03-24T04:30:53.204Z,63.83
2019-03-24T04:33:22.316Z,63.70
2019-03-24T04:35:51.619Z,66.37
2019-03-24T04:38:21.176Z,63.35
2019-03-24T04:40:50.315Z,65.50
2019-03-24T04:43:19.604Z,67.10
2019-03-24T04:45:49.166Z,69.87
2019-03-24T04:48:18.754Z,70.00
2019-03-24T04:50:48.140Z,67.47
2019-03-24T04:53:17.198Z,60.60
2019-03-24T04:55:46.312Z,62.40
2019-03-24T04:58:15.404Z,52.08
2019-03-24T05:00:44.498Z,55.90
2019-03-24T05:03:13.582Z,55.55
2019-03-24T05:05:42.747Z,62.93
2019-03-24T05:08:11.891Z,61.45
2019-03-24T05:10:40.999Z,52.62
2019-03-24T05:13:10.095Z,56.50
2019-03-24T05:15:39.190Z,58.40
2019-03-24T05:18:08.495Z,62.93
2019-03-24T05:20:38.035Z,65.65
2019-03-24T05:23:07.179Z,62.23
2019-03-24T05:25:36.572Z,62.88
2019-03-24T05:28:05.675Z,66.42
2019-03-24T05:30:34.786Z,68.05
2019-03-24T05:33:03.854Z,72.47
2019-03-24T05:35:32.958Z,69.27
2019-03-24T05:38:02.386Z,60.35
2019-03-24T05:40:31.454Z,62.60
2019-03-24T05:43:00.734Z,66.22
2019-03-24T05:45:29.867Z,65.20
2019-03-24T05:47:58.955Z,57.83
2019-03-24T05:50:28.049Z,62.53
2019-03-24T05:52:57.151Z,65.95
2019-03-24T05:55:26.234Z,66.33
2019-03-24T05:57:55.613Z,60.28
2019-03-24T06:00:24.743Z,58.33
2019-03-24T06:02:54.131Z,63.17
2019-03-24T06:05:23.266Z,58.35
2019-03-24T06:07:52.596Z,57.62
2019-03-24T06:10:21.742Z,64.07
2019-03-24T06:12:51.154Z,68.45
2019-03-24T06:15:20.463Z,67.53
2019-03-24T06:17:49.545Z,76.53
2019-03-24T06:20:18.626Z,69.30
2019-03-24T06:22:47.977Z,69.07
2019-03-24T06:25:17.141Z,69.60
2019-03-24T06:27:46.239Z,69.00
2019-03-24T06:30:15.567Z,78.10
2019-03-24T06:32:44.863Z,69.50
2019-03-24T06:35:13.934Z,70.75
2019-03-24T06:37:43.299Z,69.05
2019-03-24T06:40:12.583Z,75.85
2019-03-24T06:42:41.698Z,69.45
2019-03-24T06:45:10.791Z,78.05
2019-03-24T06:47:39.892Z,83.12
2019-03-24T06:50:09.076Z,82.30
2019-03-24T06:52:38.182Z,78.87
2019-03-24T06:55:07.274Z,78.25
2019-03-24T06:57:36.598Z,73.52
2019-03-24T07:00:06.186Z,70.47
2019-03-24T07:02:35.274Z,82.90
2019-03-24T07:05:04.979Z,77.42
2019-03-24T07:07:34.087Z,79.40
2019-03-24T07:10:03.176Z,77.32
2019-03-24T07:12:32.278Z,77.95
2019-03-24T07:15:01.613Z,77.25
2019-03-24T07:17:30.675Z,78.05
2019-03-24T07:20:00.262Z,74.05
2019-03-24T07:22:29.478Z,85.72
2019-03-24T07:24:58.579Z,74.20
2019-03-24T07:27:27.967Z,92.97
2019-03-24T07:29:57.082Z,88.40
2019-03-24T07:32:26.658Z,96.65
2019-03-24T07:34:55.784Z,95.97
2019-03-24T07:37:24.882Z,98.47
2019-03-24T07:39:53.979Z,91.45
2019-03-24T07:42:23.070Z,90.32
2019-03-24T07:44:52.169Z,88.37
2019-03-24T07:47:21.259Z,95.35
2019-03-24T07:49:50.354Z,90.80
2019-03-24T07:52:19.446Z,81.80
2019-03-24T07:54:48.542Z,83.22
2019-03-24T07:57:18.145Z,82.82
2019-03-24T07:59:47.246Z,74.20
2019-03-24T08:02:16.808Z,77.30
2019-03-24T08:04:46.025Z,80.80
2019-03-24T08:07:15.155Z,81.87
2019-03-24T08:09:44.250Z,82.70
2019-03-24T08:12:13.346Z,76.47
2019-03-24T08:14:42.448Z,85.77
2019-03-24T08:17:11.759Z,76.25
2019-03-24T08:19:41.328Z,72.20
2019-03-24T08:22:10.771Z,75.87
2019-03-24T08:24:39.851Z,79.37
2019-03-24T08:27:08.934Z,75.60
2019-03-24T08:29:39.076Z,69.95
2019-03-24T08:32:08.268Z,74.70
2019-03-24T08:34:37.729Z,74.20
2019-03-24T08:37:07.186Z,79.15
2019-03-24T08:39:37.559Z,77.92
2019-03-24T08:42:07.330Z,73.33
2019-03-24T08:44:37.082Z,69.80
2019-03-24T08:47:06.214Z,69.72
2019-03-24T08:49:38.081Z,68.10
2019-03-24T08:52:07.407Z,70.67
2019-03-24T08:54:36.707Z,71.25
2019-03-24T08:57:05.783Z,71.97
2019-03-24T08:59:35.154Z,53.58
2019-03-24T09:02:04.572Z,53.55
2019-03-24T09:04:34.170Z,40.92
2019-03-24T09:07:03.278Z,56.20
2019-03-24T09:09:32.598Z,60.78
2019-03-24T09:12:01.686Z,58.10
2019-03-24T09:14:30.997Z,36.93
2019-03-24T09:17:00.306Z,45.52
2019-03-24T09:19:29.606Z,52.25
2019-03-24T09:21:58.949Z,49.23
2019-03-24T09:24:28.073Z,46.35
2019-03-24T09:26:57.183Z,48.30
2019-03-24T09:29:26.557Z,47.67
2019-03-24T09:31:55.698Z,49.53
2019-03-24T09:34:24.806Z,51.95
2019-03-24T09:36:56.669Z,60.60
2019-03-24T09:39:26.070Z,62.33
2019-03-24T09:41:55.366Z,63.25
2019-03-24T09:44:24.907Z,59.08
2019-03-24T09:46:54.277Z,58.08
2019-03-24T09:49:23.593Z,62.27
2019-03-24T09:51:52.742Z,57.30
2019-03-24T09:54:21.835Z,63.05
2019-03-24T09:56:50.942Z,63.42
2019-03-24T09:59:19.986Z,57.13
2019-03-24T10:01:49.135Z,58.75
2019-03-24T10:04:18.220Z,61.63
2019-03-24T10:06:47.344Z,59.90
2019-03-24T10:09:16.414Z,57.93
2019-03-24T10:11:45.515Z,62.13
2019-03-24T10:14:14.603Z,61.58
2019-03-24T10:16:43.706Z,59.98
2019-03-24T10:19:14.294Z,63.13
2019-03-24T10:21:43.863Z,60.10
2019-03-24T10:24:13.014Z,61.92
2019-03-24T10:26:42.371Z,65.37
2019-03-24T10:29:11.435Z,66.28
2019-03-24T10:31:42.555Z,56.75
2019-03-24T10:34:11.575Z,59.65
2019-03-24T10:36:40.899Z,58.48
2019-03-24T10:39:09.963Z,60.92
2019-03-24T10:41:39.738Z,59.95
2019-03-24T10:44:08.874Z,58.75
2019-03-24T10:46:37.978Z,55.40
2019-03-24T10:49:07.066Z,52.25
2019-03-24T10:51:36.171Z,57.20
2019-03-24T10:54:05.483Z,54.65
2019-03-24T10:56:34.662Z,59.40
2019-03-24T10:59:03.768Z,54.23
2019-03-24T11:01:32.853Z,58.80
2019-03-24T11:04:02.469Z,56.83
2019-03-24T11:06:31.575Z,57.35
2019-03-24T11:09:00.666Z,50.73
2019-03-24T11:11:29.998Z,52.50
2019-03-24T11:13:59.423Z,56.37
2019-03-24T11:16:28.554Z,59.27
2019-03-24T11:18:57.885Z,63.85
2019-03-24T11:21:27.182Z,51.28
2019-03-24T11:23:56.495Z,54.40
2019-03-24T11:26:25.665Z,51.65
2019-03-24T11:28:54.778Z,54.75
2019-03-24T11:31:23.836Z,51.73
2019-03-24T11:33:52.962Z,53.35
2019-03-24T11:36:22.295Z,56.25
2019-03-24T11:38:51.446Z,56.85
2019-03-24T11:41:20.538Z,52.95
2019-03-24T11:43:49.599Z,49.63
2019-03-24T11:46:18.955Z,53.40
2019-03-24T11:48:48.038Z,50.90
2019-03-24T11:51:17.634Z,52.53
2019-03-24T11:53:47.012Z,62.67
2019-03-24T11:56:16.142Z,60.75
2019-03-24T11:58:45.288Z,57.43
2019-03-24T12:01:14.431Z,59.70
2019-03-24T12:03:43.543Z,59.10
2019-03-24T12:06:14.776Z,57.50
2019-03-24T12:08:43.466Z,56.88
2019-03-24T12:11:12.793Z,52.67
2019-03-24T12:13:42.195Z,55.23
2019-03-24T12:16:11.257Z,52.45
2019-03-24T12:18:40.819Z,55.43
2019-03-24T12:21:10.202Z,51.58
2019-03-24T12:23:39.490Z,52.80
2019-03-24T12:26:08.807Z,50.92
2019-03-24T12:28:38.577Z,54.38
2019-03-24T12:31:07.923Z,51.92
2019-03-24T12:33:37.671Z,52.10
2019-03-24T12:36:06.810Z,58.70
2019-03-24T12:38:35.878Z,51.48
2019-03-24T12:41:05.645Z,54.98
2019-03-24T12:43:34.777Z,56.63
2019-03-24T12:46:04.106Z,51.45
2019-03-24T12:48:33.178Z,53.85
2019-03-24T12:51:02.270Z,57.93
2019-03-24T12:53:31.362Z,56.30
2019-03-24T12:56:00.706Z,56.37
2019-03-24T12:58:30.132Z,55.60
2019-03-24T13:00:59.496Z,54.23
2019-03-24T13:03:28.570Z,52.03
2019-03-24T13:05:57.687Z,48.30
2019-03-24T13:08:26.750Z,43.10
2019-03-24T13:10:55.858Z,36.98
2019-03-24T13:13:24.951Z,42.48
2019-03-24T13:15:54.046Z,41.65
2019-03-24T13:18:23.146Z,42.78
2019-03-24T13:20:52.240Z,39.33
2019-03-24T13:23:21.334Z,45.55
2019-03-24T13:25:50.771Z,51.30
2019-03-24T13:28:20.160Z,50.95
2019-03-24T13:30:49.247Z,46.75
2019-03-24T13:33:18.360Z,43.45
2019-03-24T13:35:51.430Z,38.73
2019-03-24T13:38:20.518Z,34.25
2019-03-24T13:40:49.810Z,37.75
2019-03-24T13:43:18.914Z,38.90
2019-03-24T13:45:48.035Z,40.08
2019-03-24T13:48:17.571Z,32.93
2019-03-24T13:50:47.299Z,40.25
2019-03-24T13:53:16.646Z,39.00
2019-03-24T13:55:45.736Z,36.85
2019-03-24T13:58:14.814Z,39.03
2019-03-24T14:00:44.186Z,38.83
2019-03-24T14:03:13.603Z,37.67
2019-03-24T14:05:42.735Z,41.92
2019-03-24T14:08:12.806Z,40.28
2019-03-24T14:10:42.487Z,42.65
2019-03-24T14:13:11.661Z,39.70
2019-03-24T14:15:40.980Z,40.12
2019-03-24T14:18:10.290Z,36.70
2019-03-24T14:20:43.721Z,44.88
2019-03-24T14:23:10.322Z,42.58
2019-03-24T14:25:39.763Z,39.35
2019-03-24T14:28:09.771Z,44.42
2019-03-24T14:30:48.459Z,38.83
2019-03-24T14:33:17.630Z,41.08
2019-03-24T14:35:46.950Z,37.65
2019-03-24T14:38:16.026Z,39.42
2019-03-24T14:40:45.148Z,40.75
2019-03-24T14:43:14.236Z,36.95
2019-03-24T14:45:43.542Z,40.70
2019-03-24T14:48:12.623Z,38.95
2019-03-24T14:50:41.935Z,36.35
2019-03-24T14:53:11.027Z,38.28
2019-03-24T14:55:40.096Z,38.23
2019-03-24T14:58:09.450Z,38.02
2019-03-24T15:00:40.191Z,38.53
2019-03-24T15:03:09.338Z,38.13
2019-03-24T15:05:38.455Z,39.50
2019-03-24T15:08:07.610Z,36.88
2019-03-24T15:10:36.727Z,37.85
2019-03-24T15:13:05.838Z,34.18
2019-03-24T15:15:35.139Z,35.70
2019-03-24T15:18:04.266Z,32.03
2019-03-24T15:20:33.406Z,33.60
2019-03-24T15:23:02.787Z,33.85
2019-03-24T15:25:31.914Z,31.80
2019-03-24T15:28:01.026Z,34.05
2019-03-24T15:30:30.123Z,31.97
2019-03-24T15:32:59.206Z,34.45
2019-03-24T15:35:28.533Z,34.03
2019-03-24T15:38:08.227Z,31.70
2019-03-24T15:40:28.656Z,28.90
2019-03-24T15:42:57.947Z,30.02
2019-03-24T15:45:27.110Z,30.72
2019-03-24T15:47:56.250Z,26.65
2019-03-24T15:50:25.331Z,30.82
2019-03-24T15:52:54.430Z,27.40
2019-03-24T15:55:23.491Z,30.75
2019-03-24T15:57:52.623Z,24.20
2019-03-24T16:00:39.839Z,22.85
2019-03-24T16:03:08.962Z,24.20
2019-03-24T16:05:38.042Z,20.92
2019-03-24T16:08:07.127Z,23.00
2019-03-24T16:10:36.263Z,22.55
2019-03-24T16:13:05.422Z,20.50
2019-03-24T16:15:34.522Z,23.65
2019-03-24T16:18:03.879Z,23.25
2019-03-24T16:20:33.238Z,20.25
2019-03-24T16:23:02.682Z,20.27
2019-03-24T16:25:32.354Z,19.17
2019-03-24T16:28:01.706Z,19.77
2019-03-24T16:30:30.830Z,16.90
2019-03-24T16:33:00.159Z,18.35
2019-03-24T16:35:29.231Z,17.85
2019-03-24T16:37:58.331Z,19.17
2019-03-24T16:40:27.643Z,16.07
2019-03-24T16:42:56.971Z,18.48
2019-03-24T16:45:26.482Z,17.15
2019-03-24T16:47:55.860Z,17.62
2019-03-24T16:50:24.934Z,18.52
2019-03-24T16:52:54.035Z,20.77
2019-03-24T16:55:23.338Z,17.30
2019-03-24T16:57:52.430Z,18.40
2019-03-24T17:00:21.891Z,20.50
2019-03-24T17:02:51.269Z,19.40
2019-03-24T17:05:20.346Z,17.67
2019-03-24T17:07:49.623Z,18.57
2019-03-24T17:10:18.730Z,16.55
2019-03-24T17:12:47.822Z,13.25
2019-03-24T17:15:16.939Z,20.10
2019-03-24T17:17:46.233Z,17.23
2019-03-24T17:20:15.321Z,15.45
2019-03-24T17:22:44.402Z,15.35
2019-03-24T17:25:13.786Z,16.25
2019-03-24T17:27:42.907Z,17.75
2019-03-24T17:30:12.713Z,16.70
2019-03-24T17:32:42.054Z,17.60
2019-03-24T17:35:11.238Z,20.00
2019-03-24T17:37:40.878Z,19.12
2019-03-24T17:40:12.364Z,17.50
2019-03-24T17:42:41.266Z,15.93
2019-03-24T17:45:10.475Z,15.95
2019-03-24T17:47:40.062Z,14.85
2019-03-24T17:50:09.231Z,14.63
2019-03-24T17:52:38.440Z,16.65
2019-03-24T17:55:07.618Z,15.28
2019-03-24T17:57:37.114Z,17.82
2019-03-24T18:00:08.587Z,14.53
2019-03-24T18:02:37.847Z,13.15
2019-03-24T18:05:08.624Z,16.50
2019-03-24T18:07:37.780Z,13.90
2019-03-24T18:10:07.560Z,10.72
2019-03-24T18:12:36.664Z,15.48
2019-03-24T18:15:06.646Z,17.17
2019-03-24T18:17:35.775Z,12.40
2019-03-24T18:20:05.419Z,11.73
2019-03-24T18:22:34.482Z,15.50
2019-03-24T18:25:03.646Z,12.80
2019-03-24T18:27:33.098Z,15.48
2019-03-24T18:30:09.238Z,15.85
2019-03-24T18:32:38.459Z,17.90
2019-03-24T18:35:08.175Z,25.25
2019-03-24T18:37:37.262Z,18.98
2019-03-24T18:40:25.395Z,17.02
2019-03-24T18:42:54.494Z,18.77
2019-03-24T18:45:24.082Z,17.80
2019-03-24T18:47:53.202Z,19.65
2019-03-24T18:50:22.350Z,19.87
2019-03-24T18:52:52.075Z,13.48
2019-03-24T18:55:21.427Z,21.70
2019-03-24T18:57:50.510Z,22.00
2019-03-24T19:00:19.940Z,37.85
2019-03-24T19:02:49.119Z,38.40
2019-03-24T19:05:18.200Z,32.13
2019-03-24T19:07:47.746Z,34.78
2019-03-24T19:10:17.598Z,40.63
2019-03-24T19:12:46.986Z,34.90
2019-03-24T19:15:17.018Z,40.35
2019-03-24T19:17:46.181Z,32.53
2019-03-24T19:20:16.295Z,35.15
2019-03-24T19:22:45.466Z,35.23
2019-03-24T19:25:14.546Z,32.25
2019-03-24T19:27:43.669Z,37.00
2019-03-24T19:30:14.279Z,33.30
2019-03-24T19:32:43.651Z,36.28
2019-03-24T19:35:12.790Z,35.10
2019-03-24T19:37:42.227Z,38.35
2019-03-24T19:40:24.922Z,37.67
2019-03-24T19:42:54.038Z,32.73
2019-03-24T19:45:23.227Z,33.10
2019-03-24T19:47:52.633Z,34.95
2019-03-24T19:50:21.790Z,35.43
2019-03-24T19:52:50.914Z,28.70
2019-03-24T19:55:19.974Z,29.45
2019-03-24T19:57:49.097Z,30.05
2019-03-24T20:00:18.170Z,29.60
2019-03-24T20:02:47.527Z,29.18
2019-03-24T20:05:16.674Z,28.57
2019-03-24T20:07:48.190Z,29.35
2019-03-24T20:10:16.851Z,29.63
2019-03-24T20:12:46.182Z,29.20
2019-03-24T20:15:15.562Z,29.55
2019-03-24T20:17:44.710Z,30.65
2019-03-24T20:20:14.771Z,25.97
2019-03-24T20:22:43.962Z,29.52
2019-03-24T20:25:13.139Z,22.40
2019-03-24T20:27:42.493Z,21.65
2019-03-24T20:30:11.867Z,19.50
2019-03-24T20:32:41.030Z,24.12
2019-03-24T20:35:13.670Z,20.40
2019-03-24T20:37:43.381Z,24.07
2019-03-24T20:40:12.551Z,23.12
2019-03-24T20:42:41.964Z,22.98
2019-03-24T20:45:11.703Z,18.82
2019-03-24T20:47:40.826Z,23.05
2019-03-24T20:50:10.135Z,21.15
2019-03-24T20:52:39.242Z,24.60
2019-03-24T20:55:08.354Z,22.77
2019-03-24T20:57:37.414Z,19.27
2019-03-24T21:00:06.751Z,15.70
2019-03-24T21:02:36.064Z,17.12
2019-03-24T21:05:05.458Z,15.80
2019-03-24T21:07:35.103Z,12.68
2019-03-24T21:10:04.634Z,17.30
2019-03-24T21:12:33.994Z,13.95
2019-03-24T21:15:03.139Z,11.75
2019-03-24T21:17:32.687Z,16.02
2019-03-24T21:20:01.842Z,10.95
2019-03-24T21:22:31.414Z,11.53
2019-03-24T21:25:00.787Z,14.80
2019-03-24T21:27:30.166Z,12.75
2019-03-24T21:29:59.496Z,11.63
2019-03-24T21:32:29.283Z,19.05
2019-03-24T21:34:58.362Z,13.03
2019-03-24T21:37:27.674Z,16.57
2019-03-24T21:39:56.750Z,11.97
2019-03-24T21:42:25.838Z,11.50
2019-03-24T21:44:55.247Z,16.30
2019-03-24T21:47:24.579Z,17.42
2019-03-24T21:49:53.909Z,15.32
2019-03-24T21:52:23.054Z,14.40
2019-03-24T21:54:52.159Z,14.75
2019-03-24T21:57:21.250Z,14.75
2019-03-24T21:59:50.338Z,10.78
2019-03-24T22:02:19.931Z,15.70
2019-03-24T22:04:49.039Z,12.45
2019-03-24T22:07:18.388Z,13.60
2019-03-24T22:09:47.542Z,11.25
2019-03-24T22:12:16.638Z,14.80
2019-03-24T22:14:45.766Z,11.43
2019-03-24T22:17:14.838Z,13.10
2019-03-24T22:19:44.175Z,14.58
2019-03-24T22:22:13.936Z,17.98
2019-03-24T22:24:43.037Z,25.70
2019-03-24T22:27:12.413Z,15.68
2019-03-24T22:29:41.526Z,8.43
2019-03-24T22:32:10.622Z,14.10
2019-03-24T22:34:39.731Z,15.83
2019-03-24T22:37:15.714Z,14.53
2019-03-24T22:39:40.173Z,11.12
2019-03-24T22:42:09.331Z,14.30
2019-03-24T22:44:38.810Z,11.53
2019-03-24T22:47:07.966Z,13.15
2019-03-24T22:49:37.078Z,10.20
2019-03-24T22:52:07.531Z,11.97
2019-03-24T22:54:37.538Z,15.38
2019-03-24T22:57:06.839Z,13.95
2019-03-24T22:59:36.151Z,22.22
2019-03-24T23:02:05.391Z,10.32
2019-03-24T23:04:34.515Z,10.45
2019-03-24T23:07:03.862Z,7.92
2019-03-24T23:09:33.383Z,8.63
2019-03-24T23:12:02.511Z,12.73
2019-03-24T23:14:31.920Z,11.88
2019-03-24T23:17:01.019Z,13.55
2019-03-24T23:19:30.334Z,10.88
2019-03-24T23:21:59.930Z,12.15
2019-03-24T23:24:29.288Z,13.55
2019-03-24T23:26:58.682Z,14.03
2019-03-24T23:29:27.831Z,11.22
2019-03-24T23:31:56.922Z,11.33
2019-03-24T23:34:26.031Z,15.25
2019-03-24T23:36:55.130Z,15.88
2019-03-24T23:39:24.212Z,8.95
2019-03-24T23:41:53.301Z,11.12
2019-03-24T23:44:22.644Z,10.95
2019-03-24T23:46:51.698Z,10.35
2019-03-24T23:49:20.794Z,9.98
2019-03-24T23:51:49.838Z,11.53
2019-03-24T23:54:26.879Z,15.45
2019-03-24T23:56:50.071Z,10.55
2019-03-24T23:59:19.226Z,15.38
